Weather at Prince Albert Glass Field

Public forecast

Using degrees Celsius for public forecast. Weather courtesy of forecast.io.

Current aviation weather report (METAR) for Prince Albert Glass Field

Retrieved 2021/10/16 05:00 UTC (33 minutes ago):

CYPA 160500Z 26003KT 15SM SKC 00/M02 A2982 RMK SLP120

Aviation forecast (TAF) for Prince Albert Glass Field

Retrieved 2021-10-16 01:39 UTC (4 hours ago):

TAF CYPA 160038Z 1601/1613 27005KT P6SM SKC RMK NXT FCST BY 160700Z